Time;durP1;ratioP1;P1;durP2;ratioP2;P2;SDS_P1;SDS_P2;PMS_P1;PMS_P2;Temp;Humidity;BMP_temperature;BMP_pressure;BME280_temperature;BME280_humidity;BME280_pressure;Samples;Min_cycle;Max_cycle;Signal;HPM_P1;HPM_P2
2022/01/25 00:10:13;;;;;;;12.27;9.27;;;;;;;3.89;85.90;102647.47;4974725;28;20277;-73
2022/01/25 00:15:55;;;;;;;14.73;10.07;;;;;;;3.88;86.43;102648.34;5006496;28;20310;-74
2022/01/25 00:26:37;;;;;;;15.83;10.17;;;;;;;3.86;86.13;102642.22;5011072;28;20624;-74
2022/01/25 00:29:09;;;;;;;16.40;11.17;;;;;;;3.86;86.67;102639.56;5009127;28;20304;-73
2022/01/25 00:31:38;;;;;;;15.87;10.70;;;;;;;3.86;86.78;102644.84;5002383;28;20589;-73
2022/01/25 00:34:06;;;;;;;15.50;10.43;;;;;;;3.88;86.22;102640.44;4992247;28;20220;-73
2022/01/25 00:36:35;;;;;;;15.00;10.80;;;;;;;3.88;86.13;102637.81;5004715;28;20207;-73
2022/01/25 00:39:03;;;;;;;15.57;10.57;;;;;;;3.88;86.12;102640.44;5007965;28;20316;-73
2022/01/25 00:41:29;;;;;;;15.90;10.93;;;;;;;3.88;86.31;102631.66;5010309;28;20202;-73
2022/01/25 00:43:59;;;;;;;17.40;11.07;;;;;;;3.88;86.38;102637.81;5008491;28;20211;-73
2022/01/25 00:46:27;;;;;;;18.00;10.50;;;;;;;3.88;86.54;102636.94;5008406;28;20683;-74
2022/01/25 00:48:59;;;;;;;16.90;12.47;;;;;;;3.88;86.73;102636.94;5008278;28;20716;-73
2022/01/25 00:54:27;;;;;;;16.27;10.93;;;;;;;3.89;86.79;102634.31;4989490;28;20203;-73
2022/01/25 00:56:54;;;;;;;15.87;10.47;;;;;;;3.90;86.31;102633.41;5001244;28;20206;-74
2022/01/25 00:59:23;;;;;;;17.03;10.40;;;;;;;3.90;86.06;102636.06;4992851;28;21929;-73
2022/01/25 01:01:51;;;;;;;16.20;11.30;;;;;;;3.89;86.60;102634.31;5009303;28;20229;-73
2022/01/25 01:04:19;;;;;;;15.27;10.20;;;;;;;3.90;86.92;102632.53;5000122;28;20210;-73
2022/01/25 01:06:46;;;;;;;13.60;10.23;;;;;;;3.89;86.45;102628.16;4997533;28;20241;-74
2022/01/25 01:09:13;;;;;;;15.67;11.27;;;;;;;3.89;86.46;102634.31;5007417;28;20242;-74
2022/01/25 01:11:48;;;;;;;16.60;10.80;;;;;;;3.88;86.78;102627.28;5009944;28;20209;-73
2022/01/25 01:14:21;;;;;;;16.00;10.23;;;;;;;3.88;86.43;102634.31;5008625;28;20220;-74
2022/01/25 01:17:04;;;;;;;15.70;10.93;;;;;;;3.88;86.59;102621.13;4995477;28;20202;-73
2022/01/25 01:30:40;;;;;;;16.33;10.00;;;;;;;3.90;87.08;102614.97;4998189;28;20223;-73
2022/01/25 01:45:31;;;;;;;17.63;10.03;;;;;;;3.84;86.67;102600.03;4927602;29;20204;-73
2022/01/25 01:48:03;;;;;;;16.73;10.93;;;;;;;3.84;86.60;102596.53;4929195;29;20241;-73
2022/01/25 01:50:33;;;;;;;16.60;10.93;;;;;;;3.83;87.35;102600.06;4987756;28;20215;-74
2022/01/25 01:53:00;;;;;;;18.43;10.90;;;;;;;3.83;86.78;102586.88;5002167;28;20214;-73
2022/01/25 01:55:28;;;;;;;18.00;11.77;;;;;;;3.82;87.07;102586.00;5002233;28;20589;-73
2022/01/25 01:57:56;;;;;;;15.90;11.13;;;;;;;3.82;87.15;102595.66;5008187;28;20227;-73
2022/01/25 02:00:30;;;;;;;20.20;11.03;;;;;;;3.81;86.65;102588.63;5002539;28;20204;-74
2022/01/25 02:03:00;;;;;;;17.53;11.13;;;;;;;3.81;87.33;102594.78;5003251;28;20206;-73
2022/01/25 02:05:27;;;;;;;16.47;10.93;;;;;;;3.80;87.31;102595.66;5008906;28;20207;-74
2022/01/25 02:07:54;;;;;;;18.17;11.67;;;;;;;3.79;86.91;102598.31;4991617;28;20228;-73
2022/01/25 02:10:21;;;;;;;16.80;11.57;;;;;;;3.81;86.78;102597.41;5000943;28;20211;-73
2022/01/25 02:12:51;;;;;;;22.00;11.60;;;;;;;3.81;87.51;102596.53;4995236;28;20212;-73
2022/01/25 02:15:18;;;;;;;15.27;11.03;;;;;;;3.79;87.12;102593.91;5009453;28;20207;-73
2022/01/25 02:22:20;;;;;;;15.90;10.67;;;;;;;3.77;87.49;102593.03;4998535;28;20330;-73
2022/01/25 02:23:27;;;;;;;18.13;11.63;;;;;;;3.77;86.99;102586.88;5008723;28;20218;-74
2022/01/25 02:25:56;;;;;;;19.57;11.93;;;;;;;3.75;87.54;102584.28;5003217;28;20580;-73
2022/01/25 02:28:24;;;;;;;21.23;12.00;;;;;;;3.75;87.65;102586.06;5008983;28;20235;-73
2022/01/25 02:30:51;;;;;;;21.03;12.40;;;;;;;3.74;87.79;102582.53;5009209;28;20233;-74
2022/01/25 02:33:18;;;;;;;18.33;11.80;;;;;;;3.74;87.47;102586.94;5006185;28;20199;-73
2022/01/25 02:35:46;;;;;;;16.70;12.10;;;;;;;3.73;87.57;102590.44;4997516;28;20207;-73
2022/01/25 02:38:14;;;;;;;20.63;12.80;;;;;;;3.72;87.65;102586.06;5006464;28;20234;-73
2022/01/25 02:40:41;;;;;;;18.83;12.37;;;;;;;3.72;88.06;102583.41;4997305;28;20212;-73
2022/01/25 02:43:08;;;;;;;20.60;12.47;;;;;;;3.71;87.58;102574.63;4996064;28;20310;-73
2022/01/25 02:45:37;;;;;;;18.27;12.40;;;;;;;3.70;87.34;102572.88;4994942;28;20551;-74
2022/01/25 02:50:50;;;;;;;19.07;11.83;;;;;;;3.70;87.21;102572.00;4995984;28;20210;-73
2022/01/25 02:53:39;;;;;;;18.00;11.83;;;;;;;3.71;87.43;102577.28;5000316;28;20211;-73
2022/01/25 03:02:49;;;;;;;16.50;10.73;;;;;;;3.71;87.77;102565.84;5006203;28;20194;-74
2022/01/25 03:05:16;;;;;;;20.07;12.60;;;;;;;3.70;88.03;102564.09;5013356;28;20207;-73
2022/01/25 03:07:44;;;;;;;18.50;11.90;;;;;;;3.69;87.97;102560.59;5000180;28;20208;-73
2022/01/25 03:10:12;;;;;;;21.63;12.43;;;;;;;3.69;88.09;102562.34;5004379;28;20257;-73
2022/01/25 03:12:44;;;;;;;19.87;12.83;;;;;;;3.69;88.42;102563.22;5012632;28;20230;-73
2022/01/25 03:15:29;;;;;;;19.67;12.33;;;;;;;3.68;87.69;102561.47;4992845;28;20211;-73
2022/01/25 03:17:59;;;;;;;22.23;13.67;;;;;;;3.67;87.65;102564.09;5007141;28;20233;-73
2022/01/25 03:20:47;;;;;;;16.90;11.93;;;;;;;3.66;88.14;102568.50;5009983;28;20207;-73
2022/01/25 03:23:18;;;;;;;19.70;12.90;;;;;;;3.66;88.18;102565.00;5000209;28;20417;-73
2022/01/25 03:25:47;;;;;;;22.47;12.67;;;;;;;3.66;87.95;102576.41;4993776;28;20693;-73
2022/01/25 03:28:14;;;;;;;20.73;13.37;;;;;;;3.66;88.59;102572.91;4997027;28;20335;-73
2022/01/25 03:30:40;;;;;;;20.63;13.10;;;;;;;3.67;88.42;102572.00;5007594;28;20203;-74
2022/01/25 03:33:07;;;;;;;23.67;13.27;;;;;;;3.66;88.50;102573.78;5005584;28;20212;-73
2022/01/25 03:35:34;;;;;;;19.80;12.33;;;;;;;3.67;88.04;102564.09;5004303;28;20576;-73
2022/01/25 03:38:00;;;;;;;20.33;11.90;;;;;;;3.66;88.13;102560.59;5010330;28;20218;-74
2022/01/25 03:40:28;;;;;;;21.00;13.00;;;;;;;3.65;88.27;102564.13;5009431;28;20203;-74
2022/01/25 03:42:55;;;;;;;19.27;12.20;;;;;;;3.64;87.92;102565.00;5009613;28;20298;-74
2022/01/25 03:45:29;;;;;;;20.77;11.57;;;;;;;3.65;88.90;102572.00;5011435;28;20211;-74
2022/01/25 03:49:48;;;;;;;21.43;13.30;;;;;;;3.64;87.88;102561.47;5005963;28;20253;-73
2022/01/25 03:50:50;;;;;;;25.17;14.43;;;;;;;3.63;88.87;102562.34;5007457;28;20682;-74
2022/01/25 03:53:18;;;;;;;25.13;14.70;;;;;;;3.62;88.24;102556.22;5004889;28;20214;-74
2022/01/25 03:55:47;;;;;;;19.27;12.50;;;;;;;3.62;88.12;102558.84;5000990;28;20712;-73
2022/01/25 03:58:15;;;;;;;22.97;14.00;;;;;;;3.61;88.44;102564.13;5001871;28;20238;-74
2022/01/25 04:00:44;;;;;;;20.23;12.63;;;;;;;3.61;88.73;102559.72;4991045;28;20677;-73
2022/01/25 04:03:16;;;;;;;19.80;13.07;;;;;;;3.61;88.22;102559.72;4996333;28;20207;-73
2022/01/25 04:05:50;;;;;;;22.53;13.97;;;;;;;3.62;88.66;102560.59;5008178;28;20550;-74
2022/01/25 04:08:19;;;;;;;21.83;13.40;;;;;;;3.61;88.70;102558.84;5006244;28;20241;-73
2022/01/25 04:10:50;;;;;;;22.77;13.17;;;;;;;3.61;87.90;102561.50;5006671;28;20617;-73
2022/01/25 04:13:16;;;;;;;23.93;13.20;;;;;;;3.61;88.43;102549.19;5009896;28;20218;-73
2022/01/25 04:15:45;;;;;;;23.60;14.30;;;;;;;3.61;87.89;102554.47;5000466;28;20234;-73
2022/01/25 04:21:02;;;;;;;23.47;13.90;;;;;;;3.64;88.84;102548.31;4993598;28;20239;-74
2022/01/25 04:26:14;;;;;;;23.60;13.30;;;;;;;3.63;88.46;102541.28;4997162;28;20222;-72
2022/01/25 04:28:40;;;;;;;24.47;13.50;;;;;;;3.64;88.65;102541.28;5005616;28;20242;-73
2022/01/25 04:31:07;;;;;;;24.67;14.33;;;;;;;3.64;88.61;102543.03;5008131;28;20222;-74
2022/01/25 04:33:42;;;;;;;26.50;14.83;;;;;;;3.64;88.41;102541.28;4998485;28;20214;-73
2022/01/25 04:36:27;;;;;;;22.93;13.70;;;;;;;3.64;88.64;102527.22;5007424;28;20214;-74
2022/01/25 04:49:56;;;;;;;27.33;15.33;;;;;;;3.67;88.50;102521.94;5003892;28;20245;-73
2022/01/25 04:52:29;;;;;;;26.97;15.20;;;;;;;3.66;88.60;102530.72;4994063;28;20242;-73
2022/01/25 04:55:06;;;;;;;28.87;15.67;;;;;;;3.65;88.43;102526.34;4993430;28;20254;-73
2022/01/25 04:57:43;;;;;;;28.27;15.30;;;;;;;3.64;88.30;102520.19;5003025;28;20221;-73
2022/01/25 05:00:16;;;;;;;30.57;15.47;;;;;;;3.65;88.01;102518.44;5008734;28;20772;-73
2022/01/25 05:02:49;;;;;;;30.17;16.33;;;;;;;3.64;87.75;102522.84;5009474;28;20298;-73
2022/01/25 05:05:20;;;;;;;29.20;16.40;;;;;;;3.64;87.86;102522.84;5008681;28;20207;-73
2022/01/25 05:07:57;;;;;;;26.57;15.43;;;;;;;3.65;87.64;102524.59;5020609;22;20314;31
2022/01/25 05:10:24;;;;;;;25.77;14.93;;;;;;;3.66;87.64;102528.09;5023440;28;20627;-71
2022/01/25 05:13:05;;;;;;;28.70;15.37;;;;;;;3.66;87.88;102528.09;5020066;28;20206;-71
2022/01/25 05:16:01;;;;;;;29.13;15.23;;;;;;;3.68;88.06;102534.25;5021259;28;20634;-72
2022/01/25 05:18:37;;;;;;;29.43;15.83;;;;;;;3.69;87.80;102530.72;5017665;28;20309;-70
2022/01/25 05:23:48;;;;;;;27.90;15.30;;;;;;;3.69;87.41;102542.13;5010294;28;20218;-71
2022/01/25 05:26:15;;;;;;;28.37;14.73;;;;;;;3.70;87.42;102543.03;5008405;28;20799;-70
2022/01/25 05:28:43;;;;;;;29.63;15.93;;;;;;;3.70;87.60;102540.38;5010259;28;20241;-70
2022/01/25 05:31:09;;;;;;;30.87;17.47;;;;;;;3.70;88.31;102546.53;5004215;28;20213;-70
2022/01/25 05:33:36;;;;;;;30.10;16.93;;;;;;;3.70;88.12;102543.03;5006285;28;20206;-70
2022/01/25 05:36:02;;;;;;;29.17;16.67;;;;;;;3.69;87.94;102539.50;5007376;28;20199;-71
2022/01/25 05:38:29;;;;;;;31.77;16.00;;;;;;;3.68;87.53;102545.66;5003687;28;20237;-70
2022/01/25 05:40:59;;;;;;;36.10;17.37;;;;;;;3.69;88.11;102546.53;5006133;28;20202;-72
2022/01/25 05:46:14;;;;;;;39.47;19.00;;;;;;;3.64;88.18;102541.28;5002208;28;20333;-72
2022/01/25 05:48:41;;;;;;;42.73;20.00;;;;;;;3.64;87.95;102545.66;4999895;28;20265;-72
2022/01/25 05:51:08;;;;;;;43.20;19.87;;;;;;;3.61;87.33;102548.31;5010146;28;20210;-71
2022/01/25 05:53:35;;;;;;;51.97;23.67;;;;;;;3.60;87.13;102551.81;5010951;28;20282;-71
2022/01/25 05:56:02;;;;;;;42.33;21.37;;;;;;;3.60;86.97;102543.94;5003510;28;20222;-72
2022/01/25 05:58:29;;;;;;;44.53;20.87;;;;;;;3.59;87.08;102550.94;5008724;28;20654;-70
2022/01/25 06:00:55;;;;;;;45.73;20.27;;;;;;;3.59;87.20;102555.34;5009643;28;20218;-72
2022/01/25 06:03:23;;;;;;;47.80;22.20;;;;;;;3.58;86.42;102557.13;5001424;28;20200;-70
2022/01/25 06:05:50;;;;;;;49.40;22.87;;;;;;;3.59;86.50;102545.69;5003962;28;20206;-70
2022/01/25 06:08:16;;;;;;;54.87;24.63;;;;;;;3.59;86.86;102550.06;5004424;28;20244;-70
2022/01/25 06:10:43;;;;;;;56.00;24.57;;;;;;;3.60;86.81;102543.94;5009183;28;20218;-71
2022/01/25 06:13:09;;;;;;;52.53;22.80;;;;;;;3.60;86.36;102549.19;5009139;28;20219;-70
2022/01/25 06:15:36;;;;;;;50.03;23.20;;;;;;;3.61;86.44;102557.09;5011789;28;20234;-70
2022/01/25 06:18:03;;;;;;;52.43;23.93;;;;;;;3.61;86.43;102556.22;5002942;28;20208;-70
2022/01/25 06:20:32;;;;;;;51.97;23.97;;;;;;;3.62;85.90;102560.59;5003737;28;20207;-70
2022/01/25 06:22:59;;;;;;;51.73;23.90;;;;;;;3.61;86.00;102558.84;5008091;28;20203;-70
2022/01/25 06:25:25;;;;;;;57.17;24.97;;;;;;;3.59;85.85;102552.72;5019414;28;20595;-71
2022/01/25 06:27:52;;;;;;;56.47;24.23;;;;;;;3.56;85.54;102551.00;5015816;28;20573;-73
2022/01/25 06:30:20;;;;;;;54.00;25.10;;;;;;;3.55;86.20;102546.59;5012772;28;20230;-71
2022/01/25 06:32:47;;;;;;;53.67;23.80;;;;;;;3.53;85.63;102558.91;5012096;28;20209;-71
2022/01/25 06:35:14;;;;;;;53.70;23.93;;;;;;;3.53;85.45;102563.28;5015468;28;20233;-70
2022/01/25 06:37:43;;;;;;;51.83;24.50;;;;;;;3.52;85.71;102561.53;5010010;28;20642;-71
2022/01/25 06:40:11;;;;;;;51.83;23.73;;;;;;;3.51;84.98;102563.31;5015905;28;20234;-71
2022/01/25 06:42:38;;;;;;;45.80;22.10;;;;;;;3.51;85.58;102565.94;5005836;28;20198;-70
2022/01/25 06:45:11;;;;;;;54.63;23.47;;;;;;;3.51;85.36;102559.78;5005457;28;20808;-74
2022/01/25 06:47:37;;;;;;;51.57;24.40;;;;;;;3.51;84.76;102560.66;5007536;28;20768;-71
2022/01/25 06:50:05;;;;;;;46.40;22.53;;;;;;;3.51;84.78;102567.69;5014663;28;20242;-72
2022/01/25 06:52:31;;;;;;;45.33;22.40;;;;;;;3.48;84.87;102564.19;5013359;28;20207;-72
2022/01/25 06:54:59;;;;;;;48.20;23.73;;;;;;;3.47;84.80;102577.34;5010497;28;20207;-71
2022/01/25 06:57:25;;;;;;;55.83;23.83;;;;;;;3.45;84.10;102569.47;5012705;28;20687;-72
2022/01/25 06:59:52;;;;;;;47.50;22.00;;;;;;;3.45;83.93;102565.94;5009982;28;20240;-70
2022/01/25 07:02:19;;;;;;;44.30;21.60;;;;;;;3.44;83.68;102572.97;5002619;28;20491;-71
2022/01/25 07:04:45;;;;;;;50.97;22.40;;;;;;;3.43;83.40;102570.34;5014407;28;20210;-70
2022/01/25 07:07:12;;;;;;;47.13;21.20;;;;;;;3.42;83.79;102568.59;5010730;28;20215;-70
2022/01/25 07:09:38;;;;;;;51.23;23.47;;;;;;;3.41;83.57;102567.69;5011768;28;20246;-71
2022/01/25 07:12:07;;;;;;;44.43;21.33;;;;;;;3.42;82.93;102569.47;5011360;28;20222;-71
2022/01/25 07:14:34;;;;;;;53.63;23.50;;;;;;;3.42;83.13;102577.34;5011063;28;20214;-70
2022/01/25 07:17:01;;;;;;;48.17;22.43;;;;;;;3.43;83.49;102581.75;5011940;28;20692;-70
2022/01/25 07:19:27;;;;;;;48.33;22.47;;;;;;;3.44;83.02;102583.50;5011267;28;20238;-71
2022/01/25 07:21:54;;;;;;;50.90;23.10;;;;;;;3.44;82.53;102583.50;5013288;28;20207;-71
2022/01/25 07:24:21;;;;;;;47.23;22.13;;;;;;;3.43;82.88;102580.88;5011408;28;20752;-70
2022/01/25 07:26:48;;;;;;;52.23;22.57;;;;;;;3.42;82.13;102580.00;5012770;28;20215;-70
2022/01/25 07:29:16;;;;;;;49.37;22.23;;;;;;;3.41;82.89;102583.50;5011321;28;20791;-71
2022/01/25 07:31:44;;;;;;;48.67;22.77;;;;;;;3.39;81.92;102584.41;5013693;28;20199;-71
2022/01/25 07:34:11;;;;;;;47.77;22.30;;;;;;;3.39;82.60;102582.66;5006814;28;20322;-70
2022/01/25 07:36:41;;;;;;;49.97;22.53;;;;;;;3.39;81.78;102585.31;5006584;28;20199;-70
2022/01/25 07:39:07;;;;;;;50.90;24.07;;;;;;;3.40;82.07;102583.53;5005822;28;20254;-70
2022/01/25 07:41:34;;;;;;;49.17;22.87;;;;;;;3.41;82.03;102598.44;5006038;28;20207;-70
2022/01/25 07:44:00;;;;;;;53.23;23.30;;;;;;;3.41;81.39;102599.31;5004177;28;20567;-67
2022/01/25 07:46:29;;;;;;;51.40;23.57;;;;;;;3.42;81.53;102593.16;5011575;28;20225;-72
2022/01/25 07:48:57;;;;;;;50.97;22.07;;;;;;;3.40;81.52;102592.28;5012434;28;20226;-70
2022/01/25 07:51:25;;;;;;;48.87;23.97;;;;;;;3.42;82.04;102594.91;5005731;28;20229;-72
2022/01/25 07:53:52;;;;;;;52.00;23.17;;;;;;;3.43;81.66;102601.94;5005957;28;20206;-71
2022/01/25 07:56:19;;;;;;;46.80;21.53;;;;;;;3.42;81.66;102600.19;5012302;28;20778;-70
2022/01/25 07:58:45;;;;;;;50.77;23.63;;;;;;;3.43;81.90;102600.19;5009411;28;20223;-70
2022/01/25 08:01:12;;;;;;;52.03;22.23;;;;;;;3.43;81.78;102594.91;5007395;28;20199;-71
2022/01/25 08:03:40;;;;;;;49.00;23.37;;;;;;;3.45;82.11;102597.56;5009252;28;20203;-71
2022/01/25 08:06:07;;;;;;;47.80;22.60;;;;;;;3.45;82.03;102595.78;5006230;28;20218;-70
2022/01/25 08:08:34;;;;;;;53.87;23.23;;;;;;;3.46;81.79;102592.28;5003607;28;20500;-68
2022/01/25 08:11:00;;;;;;;49.87;22.20;;;;;;;3.46;81.87;102594.91;5011423;28;20237;-71
2022/01/25 08:13:27;;;;;;;49.43;22.43;;;;;;;3.46;81.54;102597.56;5010487;28;20215;-68
2022/01/25 08:15:53;;;;;;;47.50;21.70;;;;;;;3.47;81.54;102582.63;5011803;28;20206;-68
2022/01/25 08:18:20;;;;;;;51.40;22.93;;;;;;;3.47;82.20;102586.13;5011941;28;20234;-68
2022/01/25 08:20:48;;;;;;;52.60;22.50;;;;;;;3.47;81.29;102586.13;5010607;28;20860;-68
2022/01/25 08:23:15;;;;;;;51.27;22.43;;;;;;;3.47;81.94;102586.13;5011327;28;20221;-67
2022/01/25 08:25:42;;;;;;;53.40;23.17;;;;;;;3.45;81.39;102582.63;5011146;28;20219;-69
2022/01/25 08:28:08;;;;;;;53.33;24.40;;;;;;;3.46;81.29;102578.22;5000645;28;20223;-68
2022/01/25 08:30:35;;;;;;;54.03;23.23;;;;;;;3.47;81.08;102588.75;5000341;28;20223;-67
2022/01/25 08:33:02;;;;;;;49.50;22.37;;;;;;;3.47;81.29;102588.75;4998515;28;20211;-69
2022/01/25 08:35:28;;;;;;;50.87;20.93;;;;;;;3.47;80.95;102580.88;4997356;28;20204;-69
2022/01/25 08:37:59;;;;;;;46.30;21.93;;;;;;;3.48;81.65;102579.09;4996937;28;20203;-70
2022/01/25 08:40:25;;;;;;;49.40;21.53;;;;;;;3.45;81.45;102582.63;4998601;28;20204;-69
2022/01/25 08:42:52;;;;;;;51.23;21.73;;;;;;;3.46;81.15;102589.66;5006210;28;20211;-68
2022/01/25 08:45:19;;;;;;;48.60;21.73;;;;;;;3.46;80.83;102592.28;5000260;28;20203;-68
2022/01/25 08:47:45;;;;;;;50.13;21.37;;;;;;;3.47;80.97;102603.69;4997106;28;20211;-68
2022/01/25 08:50:13;;;;;;;50.23;22.07;;;;;;;3.47;80.67;102599.31;5000923;28;20238;-68
2022/01/25 08:52:41;;;;;;;50.87;21.87;;;;;;;3.46;81.28;102597.56;4997778;28;20210;-69
2022/01/25 08:55:10;;;;;;;47.17;20.40;;;;;;;3.49;80.75;102599.31;4997632;28;20301;-72
2022/01/25 08:57:36;;;;;;;48.47;20.37;;;;;;;3.49;81.19;102612.47;4997250;28;20207;-69
2022/01/25 09:00:07;;;;;;;46.13;21.00;;;;;;;3.49;81.25;102612.47;4996874;28;20290;-68
2022/01/25 09:02:34;;;;;;;43.23;20.40;;;;;;;3.49;80.71;102607.22;4996972;28;20502;-67
2022/01/25 09:05:00;;;;;;;45.43;21.10;;;;;;;3.50;80.95;102606.31;5003663;28;20211;-69
2022/01/25 09:07:27;;;;;;;46.40;21.13;;;;;;;3.49;80.63;102610.72;4994487;28;20292;-69
2022/01/25 09:09:53;;;;;;;47.43;21.43;;;;;;;3.49;81.28;102610.72;5005043;28;20231;-68
2022/01/25 09:12:21;;;;;;;45.97;20.67;;;;;;;3.50;81.40;102608.97;5001474;28;20211;-68
2022/01/25 09:14:48;;;;;;;53.60;22.33;;;;;;;3.52;80.52;102606.31;4995261;28;20575;-68
2022/01/25 09:17:14;;;;;;;48.33;20.80;;;;;;;3.52;80.54;102596.66;4993769;28;20211;-68
2022/01/25 09:19:41;;;;;;;48.63;20.43;;;;;;;3.51;80.80;102602.81;4994776;28;20678;-68
2022/01/25 09:22:09;;;;;;;44.63;19.40;;;;;;;3.52;80.48;102606.31;5003497;28;20217;-69
2022/01/25 09:24:37;;;;;;;43.33;19.57;;;;;;;3.51;80.54;102605.44;4998328;28;20696;-68
2022/01/25 09:27:05;;;;;;;49.90;21.57;;;;;;;3.52;80.91;102607.19;5001923;28;20223;-68
2022/01/25 09:29:32;;;;;;;43.17;20.00;;;;;;;3.53;81.16;102608.09;4997625;28;20695;-69
2022/01/25 09:31:59;;;;;;;47.30;21.43;;;;;;;3.52;80.93;102606.31;4997802;28;20223;-69
2022/01/25 09:34:27;;;;;;;44.60;20.07;;;;;;;3.51;80.73;102621.25;5007288;28;20679;-68
2022/01/25 09:36:54;;;;;;;44.30;20.33;;;;;;;3.51;80.54;102615.09;5000246;28;20207;-67
2022/01/25 09:39:21;;;;;;;47.47;21.83;;;;;;;3.49;80.29;102615.09;4999092;28;20609;-69
2022/01/25 09:41:48;;;;;;;50.30;22.10;;;;;;;3.48;80.79;102614.22;5005984;28;20205;-69
2022/01/25 09:44:15;;;;;;;47.47;20.70;;;;;;;3.48;81.13;102608.97;5005130;28;20298;-67
2022/01/25 09:46:43;;;;;;;46.77;21.07;;;;;;;3.48;80.26;102614.22;5005059;28;20215;-68
2022/01/25 09:49:12;;;;;;;48.97;21.20;;;;;;;3.49;80.27;102617.75;5001868;28;20231;-69
2022/01/25 09:51:40;;;;;;;51.77;23.37;;;;;;;3.48;80.40;102611.59;5006778;28;20223;-71
2022/01/25 09:54:07;;;;;;;51.27;22.67;;;;;;;3.51;80.65;102615.97;5007949;28;20211;-68
2022/01/25 09:56:33;;;;;;;49.17;21.67;;;;;;;3.52;80.83;102619.50;5012748;28;20664;-69
2022/01/25 09:59:01;;;;;;;50.60;22.47;;;;;;;3.52;80.44;102619.50;5008555;28;20330;-69
2022/01/25 10:01:29;;;;;;;47.17;22.33;;;;;;;3.53;80.82;102615.97;5008956;28;20202;-69
2022/01/25 10:03:58;;;;;;;48.80;21.40;;;;;;;3.54;80.44;102617.75;5010466;28;20234;-69
2022/01/25 10:06:31;;;;;;;48.87;22.13;;;;;;;3.55;80.73;102616.84;5008190;28;20204;-69
2022/01/25 10:08:58;;;;;;;46.80;22.37;;;;;;;3.55;80.22;102616.84;5008432;28;20237;-69
2022/01/25 10:11:25;;;;;;;45.67;20.43;;;;;;;3.55;80.62;102614.22;5011106;28;20233;-69
2022/01/25 10:13:56;;;;;;;53.47;23.27;;;;;;;3.56;80.85;102627.41;5014900;28;20201;-69
2022/01/25 10:16:30;;;;;;;51.70;22.20;;;;;;;3.57;80.75;102617.72;5011490;28;20203;-69
2022/01/25 10:19:00;;;;;;;50.27;22.03;;;;;;;3.59;80.50;102629.13;5013876;28;20226;-68
2022/01/25 10:21:28;;;;;;;52.20;21.30;;;;;;;3.58;80.77;102620.38;5012244;28;20581;-69
2022/01/25 10:24:08;;;;;;;51.20;22.17;;;;;;;3.59;80.88;102626.47;5012080;28;20199;-69
2022/01/25 10:26:41;;;;;;;50.17;21.13;;;;;;;3.58;80.53;102624.75;5005917;28;20199;-68
2022/01/25 10:29:09;;;;;;;50.77;21.37;;;;;;;3.57;80.92;102623.00;5007808;28;20222;-68
2022/01/25 10:31:38;;;;;;;49.77;21.47;;;;;;;3.58;80.41;102622.13;5006707;28;20227;-68
2022/01/25 10:34:08;;;;;;;49.83;21.80;;;;;;;3.57;80.47;102613.34;5009958;28;20707;-69
2022/01/25 10:36:45;;;;;;;49.40;21.37;;;;;;;3.58;80.49;102619.50;5006715;28;20785;-69
2022/01/25 10:39:13;;;;;;;51.57;22.33;;;;;;;3.57;80.46;102613.34;5004710;28;20309;-67
2022/01/25 10:41:40;;;;;;;50.90;22.20;;;;;;;3.58;81.07;102607.19;5010449;28;20203;-67
2022/01/25 10:44:08;;;;;;;52.30;21.03;;;;;;;3.58;80.86;102612.47;5012920;28;20210;-69
2022/01/25 10:46:35;;;;;;;58.97;29.73;;;;;;;3.58;80.56;102606.31;5013618;28;20202;-68
2022/01/25 10:49:06;;;;;;;54.93;25.20;;;;;;;3.59;80.54;102606.28;5008175;28;20239;-69
2022/01/25 10:51:37;;;;;;;50.10;22.33;;;;;;;3.59;80.63;102610.66;5013779;28;20222;-69
2022/01/25 10:54:07;;;;;;;52.33;22.57;;;;;;;3.58;80.67;102609.81;5015560;28;20207;-69
2022/01/25 10:56:41;;;;;;;54.27;23.33;;;;;;;3.59;81.33;102605.41;5014471;28;20211;-69
2022/01/25 10:59:11;;;;;;;58.77;26.13;;;;;;;3.58;80.79;102604.56;5016015;28;20235;-69
2022/01/25 11:01:39;;;;;;;55.07;24.73;;;;;;;3.60;81.35;102612.44;5015607;28;20297;-69
2022/01/25 11:04:10;;;;;;;62.57;28.23;;;;;;;3.61;81.25;102601.88;5015737;28;20218;-68
2022/01/25 11:06:38;;;;;;;83.47;39.97;;;;;;;3.61;81.08;102601.88;5013288;28;20214;-70
2022/01/25 11:09:08;;;;;;;60.87;29.23;;;;;;;3.61;81.58;102595.75;5032187;22;20230;-86
2022/01/25 11:11:38;;;;;;;60.43;28.10;;;;;;;3.61;81.72;102593.09;5036381;28;20272;-84
2022/01/25 11:16:51;;;;;;;54.57;24.07;;;;;;;3.61;81.70;102582.56;5040155;28;20228;-84
2022/01/25 11:19:20;;;;;;;63.37;28.50;;;;;;;3.63;81.80;102591.34;5044441;28;20225;-84
2022/01/25 11:21:48;;;;;;;56.40;27.10;;;;;;;3.64;81.50;102598.38;5049562;28;20198;-84
2022/01/25 11:24:15;;;;;;;75.93;33.23;;;;;;;3.65;81.65;102600.13;5051913;28;20208;-84
2022/01/25 11:26:43;;;;;;;90.43;48.10;;;;;;;3.65;82.14;102601.00;5045780;28;20577;-84
2022/01/25 11:29:10;;;;;;;71.13;37.10;;;;;;;3.68;81.65;102602.75;5051271;28;20236;-83
2022/01/25 11:31:40;;;;;;;53.83;24.87;;;;;;;3.69;81.64;102599.22;5050601;28;20236;-83
2022/01/25 11:34:11;;;;;;;58.27;24.63;;;;;;;3.69;82.08;102600.13;5054048;28;20211;-84
2022/01/25 11:36:47;;;;;;;58.40;26.13;;;;;;;3.69;81.76;102586.94;5046880;28;20606;-85
2022/01/25 11:39:20;;;;;;;60.73;25.40;;;;;;;3.70;82.61;102595.72;5050878;28;20212;-84
2022/01/25 11:41:46;;;;;;;55.00;27.00;;;;;;;3.70;81.86;102596.59;5046190;28;20210;-84
2022/01/25 11:44:18;;;;;;;55.30;25.23;;;;;;;3.71;82.53;102584.31;5051156;28;20205;-84
2022/01/25 11:46:51;;;;;;;54.80;24.53;;;;;;;3.72;81.94;102588.69;5045874;28;20231;-83
2022/01/25 11:49:20;;;;;;;58.77;24.23;;;;;;;3.73;82.42;102582.53;5058304;28;20248;-84
2022/01/25 11:52:06;;;;;;;52.23;23.57;;;;;;;3.73;82.53;102591.31;5069014;28;20256;-84
2022/01/25 11:54:33;;;;;;;55.47;22.77;;;;;;;3.70;82.59;102586.06;5050869;28;20682;-83
2022/01/25 11:57:11;;;;;;;50.10;22.27;;;;;;;3.70;82.53;102579.91;5046052;28;20586;-84
2022/01/25 11:59:38;;;;;;;58.93;23.80;;;;;;;3.70;81.87;102587.81;5051362;28;20206;-83
2022/01/25 12:02:05;;;;;;;57.87;24.70;;;;;;;3.70;82.43;102583.44;5063001;28;20233;-84
2022/01/25 12:04:32;;;;;;;55.90;23.90;;;;;;;3.72;82.25;102583.41;5055872;28;20293;-84
2022/01/25 12:07:11;;;;;;;52.50;23.30;;;;;;;3.70;82.86;102582.53;5058934;28;20229;-83
2022/01/25 12:09:44;;;;;;;53.77;24.97;;;;;;;3.70;82.68;102583.44;5058753;28;20236;-84
2022/01/25 12:12:12;;;;;;;58.53;23.80;;;;;;;3.68;82.77;102573.78;5058741;28;20216;-84
2022/01/25 12:14:45;;;;;;;60.33;24.93;;;;;;;3.69;82.65;102563.22;5058305;28;20212;-85
2022/01/25 12:17:15;;;;;;;52.83;21.70;;;;;;;3.70;83.00;102564.09;5057177;28;21239;-84
2022/01/25 12:19:47;;;;;;;59.50;24.33;;;;;;;3.70;82.23;102564.97;5058094;28;20210;-84
2022/01/25 12:22:35;;;;;;;60.23;24.37;;;;;;;3.70;83.06;102554.44;5059277;28;20209;-84
2022/01/25 12:25:11;;;;;;;63.67;25.50;;;;;;;3.71;83.21;102547.41;5055856;28;20548;-83
2022/01/25 12:27:50;;;;;;;54.47;23.77;;;;;;;3.69;83.30;102541.25;5058261;28;20204;-83
2022/01/25 12:34:25;;;;;;;56.97;22.23;;;;;;;3.70;83.26;102530.72;5018058;28;20257;-83
2022/01/25 12:36:51;;;;;;;56.63;23.77;;;;;;;3.69;82.85;102530.72;5009543;28;20219;-83
2022/01/25 12:39:34;;;;;;;57.00;23.90;;;;;;;3.68;83.33;102514.03;5049139;28;20218;-83
2022/01/25 12:42:03;;;;;;;59.97;22.50;;;;;;;3.69;82.97;102520.19;5054830;28;20190;-84
2022/01/25 12:44:31;;;;;;;53.63;23.27;;;;;;;3.69;83.05;102512.28;5065599;28;20209;-83
2022/01/25 12:46:57;;;;;;;60.27;22.73;;;;;;;3.69;83.56;102515.78;5060608;28;20230;-84
2022/01/25 12:49:27;;;;;;;55.37;22.20;;;;;;;3.68;83.33;102518.44;5051783;28;20225;-84
2022/01/25 12:51:55;;;;;;;53.73;22.70;;;;;;;3.68;83.31;102507.88;5050669;28;20225;-84
2022/01/25 12:54:28;;;;;;;89.87;35.87;;;;;;;3.67;83.76;102503.50;5057034;28;20213;-84